sensor_id;sensor_type;location;lat;lon;timestamp;pressure;altitude;pressure_sealevel;temperature;humidity
50394;BME280;36308;46.312;25.288;2023-05-23T00:00:59;95984.09;;;11.11;54.07
50394;BME280;36308;46.312;25.288;2023-05-23T00:03:26;95988.38;;;11.07;53.38
50394;BME280;36308;46.312;25.288;2023-05-23T00:05:51;95981.63;;;11.04;54.29
50394;BME280;36308;46.312;25.288;2023-05-23T00:08:17;95963.53;;;10.89;54.34
50394;BME280;36308;46.312;25.288;2023-05-23T00:10:44;95978.34;;;10.97;54.26
50394;BME280;36308;46.312;25.288;2023-05-23T00:13:10;95970.53;;;10.96;54.44
50394;BME280;36308;46.312;25.288;2023-05-23T00:15:42;95971.06;;;10.92;54.39
50394;BME280;36308;46.312;25.288;2023-05-23T00:18:09;95977.00;;;10.89;53.75
50394;BME280;36308;46.312;25.288;2023-05-23T00:20:42;95971.31;;;10.86;54.70
50394;BME280;36308;46.312;25.288;2023-05-23T00:23:11;95974.25;;;10.84;55.06
50394;BME280;36308;46.312;25.288;2023-05-23T00:25:44;95970.22;;;10.82;54.44
50394;BME280;36308;46.312;25.288;2023-05-23T00:28:13;95949.69;;;10.70;54.79
50394;BME280;36308;46.312;25.288;2023-05-23T00:30:39;95956.97;;;10.70;54.61
50394;BME280;36308;46.312;25.288;2023-05-23T00:33:04;95967.22;;;10.73;55.26
50394;BME280;36308;46.312;25.288;2023-05-23T00:35:30;95961.78;;;10.68;54.49
50394;BME280;36308;46.312;25.288;2023-05-23T00:37:55;95962.31;;;10.65;55.19
50394;BME280;36308;46.312;25.288;2023-05-23T00:40:21;95958.53;;;10.61;54.72
50394;BME280;36308;46.312;25.288;2023-05-23T00:42:47;95952.06;;;10.57;55.18
50394;BME280;36308;46.312;25.288;2023-05-23T00:45:13;95959.56;;;10.55;55.36
50394;BME280;36308;46.312;25.288;2023-05-23T00:47:40;95933.97;;;10.47;55.26
50394;BME280;36308;46.312;25.288;2023-05-23T00:50:10;95926.94;;;10.41;55.64
50394;BME280;36308;46.312;25.288;2023-05-23T00:52:37;95954.16;;;10.49;55.12
50394;BME280;36308;46.312;25.288;2023-05-23T00:55:03;95944.97;;;10.45;55.83
50394;BME280;36308;46.312;25.288;2023-05-23T00:57:29;95950.34;;;10.45;55.53
50394;BME280;36308;46.312;25.288;2023-05-23T00:59:55;95942.81;;;10.42;55.33
50394;BME280;36308;46.312;25.288;2023-05-23T01:02:20;95948.44;;;10.41;55.48
50394;BME280;36308;46.312;25.288;2023-05-23T01:04:49;95940.09;;;10.37;55.53
50394;BME280;36308;46.312;25.288;2023-05-23T01:07:22;95946.53;;;10.36;55.21
50394;BME280;36308;46.312;25.288;2023-05-23T01:09:47;95952.41;;;10.33;55.30
50394;BME280;36308;46.312;25.288;2023-05-23T01:12:26;95947.56;;;10.30;55.91
50394;BME280;36308;46.312;25.288;2023-05-23T01:15:10;95950.72;;;10.27;55.56
50394;BME280;36308;46.312;25.288;2023-05-23T01:20:27;95946.38;;;10.21;55.90
50394;BME280;36308;46.312;25.288;2023-05-23T01:28:28;95942.81;;;10.10;55.69
50394;BME280;36308;46.312;25.288;2023-05-23T01:30:57;95945.75;;;10.08;56.21
50394;BME280;36308;46.312;25.288;2023-05-23T01:33:24;95947.34;;;10.04;55.68
50394;BME280;36308;46.312;25.288;2023-05-23T01:35:50;95944.59;;;9.99;55.44
50394;BME280;36308;46.312;25.288;2023-05-23T01:38:16;95941.63;;;9.96;55.99
50394;BME280;36308;46.312;25.288;2023-05-23T01:40:42;95942.38;;;9.91;56.21
50394;BME280;36308;46.312;25.288;2023-05-23T01:43:07;95937.00;;;9.86;56.45
50394;BME280;36308;46.312;25.288;2023-05-23T01:45:33;95938.56;;;9.82;56.52
50394;BME280;36308;46.312;25.288;2023-05-23T01:48:00;95936.38;;;9.79;56.37
50394;BME280;36308;46.312;25.288;2023-05-23T01:50:27;95929.59;;;9.71;56.47
50394;BME280;36308;46.312;25.288;2023-05-23T01:52:54;95941.44;;;9.75;56.20
50394;BME280;36308;46.312;25.288;2023-05-23T01:55:21;95926.06;;;9.65;56.70
50394;BME280;36308;46.312;25.288;2023-05-23T01:57:53;95943.28;;;9.69;56.51
50394;BME280;36308;46.312;25.288;2023-05-23T02:00:20;95927.06;;;9.59;57.18
50394;BME280;36308;46.312;25.288;2023-05-23T02:02:45;95943.78;;;9.66;56.63
50394;BME280;36308;46.312;25.288;2023-05-23T02:05:11;95941.63;;;9.63;57.34
50394;BME280;36308;46.312;25.288;2023-05-23T02:07:37;95934.03;;;9.60;57.13
50394;BME280;36308;46.312;25.288;2023-05-23T02:10:06;95940.75;;;9.58;57.42
50394;BME280;36308;46.312;25.288;2023-05-23T02:12:32;95940.19;;;9.56;57.14
50394;BME280;36308;46.312;25.288;2023-05-23T02:14:57;95955.97;;;9.52;57.68
50394;BME280;36308;46.312;25.288;2023-05-23T02:17:23;95950.31;;;9.48;57.69
50394;BME280;36308;46.312;25.288;2023-05-23T02:19:49;95952.69;;;9.45;57.18
50394;BME280;36308;46.312;25.288;2023-05-23T02:22:15;95956.94;;;9.41;57.36
50394;BME280;36308;46.312;25.288;2023-05-23T02:24:40;95959.06;;;9.39;57.53
50394;BME280;36308;46.312;25.288;2023-05-23T02:27:06;95938.28;;;9.29;57.92
50394;BME280;36308;46.312;25.288;2023-05-23T02:29:32;95950.13;;;9.33;57.53
50394;BME280;36308;46.312;25.288;2023-05-23T02:31:57;95953.06;;;9.31;57.53
50394;BME280;36308;46.312;25.288;2023-05-23T02:34:23;95946.03;;;9.25;57.73
50394;BME280;36308;46.312;25.288;2023-05-23T02:36:48;95950.34;;;9.26;57.57
50394;BME280;36308;46.312;25.288;2023-05-23T02:39:14;95950.81;;;9.23;57.83
50394;BME280;36308;46.312;25.288;2023-05-23T02:41:39;95959.16;;;9.22;57.78
50394;BME280;36308;46.312;25.288;2023-05-23T02:44:05;95954.59;;;9.22;58.02
50394;BME280;36308;46.312;25.288;2023-05-23T02:46:30;95957.50;;;9.21;57.95
50394;BME280;36308;46.312;25.288;2023-05-23T02:48:56;95960.44;;;9.19;58.43
50394;BME280;36308;46.312;25.288;2023-05-23T02:51:21;95967.13;;;9.17;57.93
50394;BME280;36308;46.312;25.288;2023-05-23T02:53:47;95964.72;;;9.15;58.36
50394;BME280;36308;46.312;25.288;2023-05-23T02:56:12;95965.19;;;9.12;58.04
50394;BME280;36308;46.312;25.288;2023-05-23T02:58:40;95961.94;;;9.10;58.18
50394;BME280;36308;46.312;25.288;2023-05-23T03:01:05;95968.38;;;9.09;58.58
50394;BME280;36308;46.312;25.288;2023-05-23T03:03:32;95968.63;;;9.07;58.80
50394;BME280;36308;46.312;25.288;2023-05-23T03:05:58;95970.75;;;9.05;58.54
50394;BME280;36308;46.312;25.288;2023-05-23T03:08:23;95968.31;;;9.04;59.01
50394;BME280;36308;46.312;25.288;2023-05-23T03:10:49;95972.88;;;9.03;58.96
50394;BME280;36308;46.312;25.288;2023-05-23T03:13:16;95968.81;;;9.01;58.72
50394;BME280;36308;46.312;25.288;2023-05-23T03:15:42;95971.00;;;9.04;58.97
50394;BME280;36308;46.312;25.288;2023-05-23T03:18:07;95965.31;;;9.00;59.23
50394;BME280;36308;46.312;25.288;2023-05-23T03:20:33;95967.19;;;9.00;59.04
50394;BME280;36308;46.312;25.288;2023-05-23T03:22:58;95962.63;;;9.00;59.40
50394;BME280;36308;46.312;25.288;2023-05-23T03:25:24;95959.09;;;8.95;59.63
50394;BME280;36308;46.312;25.288;2023-05-23T03:27:50;95957.25;;;9.00;59.69
50394;BME280;36308;46.312;25.288;2023-05-23T03:30:16;95954.56;;;9.00;59.41
50394;BME280;36308;46.312;25.288;2023-05-23T03:32:41;95947.38;;;9.01;60.01
50394;BME280;36308;46.312;25.288;2023-05-23T03:35:07;95957.81;;;9.02;60.00
50394;BME280;36308;46.312;25.288;2023-05-23T03:37:33;95956.78;;;9.03;60.30
50394;BME280;36308;46.312;25.288;2023-05-23T03:39:58;95947.38;;;9.01;60.11
50394;BME280;36308;46.312;25.288;2023-05-23T03:42:24;95962.47;;;9.07;60.02
50394;BME280;36308;46.312;25.288;2023-05-23T03:44:49;95964.88;;;9.08;60.58
50394;BME280;36308;46.312;25.288;2023-05-23T03:47:15;95959.78;;;9.07;59.93
50394;BME280;36308;46.312;25.288;2023-05-23T03:49:40;95963.88;;;9.15;60.43
50394;BME280;36308;46.312;25.288;2023-05-23T03:52:06;95963.13;;;9.19;60.79
50394;BME280;36308;46.312;25.288;2023-05-23T03:54:31;95954.59;;;9.22;60.63
50394;BME280;36308;46.312;25.288;2023-05-23T03:56:57;95968.03;;;9.27;60.27
50394;BME280;36308;46.312;25.288;2023-05-23T03:59:22;95962.19;;;9.30;60.86
50394;BME280;36308;46.312;25.288;2023-05-23T04:01:48;95971.13;;;9.36;60.34
50394;BME280;36308;46.312;25.288;2023-05-23T04:04:13;95965.00;;;9.41;60.87
50394;BME280;36308;46.312;25.288;2023-05-23T04:06:39;95967.66;;;9.41;61.06
50394;BME280;36308;46.312;25.288;2023-05-23T04:09:04;95960.50;;;9.46;60.23
50394;BME280;36308;46.312;25.288;2023-05-23T04:11:30;95967.78;;;9.51;60.80
50394;BME280;36308;46.312;25.288;2023-05-23T04:13:56;95966.78;;;9.57;60.52
50394;BME280;36308;46.312;25.288;2023-05-23T04:16:23;95967.09;;;9.61;60.85
50394;BME280;36308;46.312;25.288;2023-05-23T04:18:48;95974.66;;;9.69;60.29
50394;BME280;36308;46.312;25.288;2023-05-23T04:21:14;95973.38;;;9.71;60.74
50394;BME280;36308;46.312;25.288;2023-05-23T04:23:40;95973.16;;;9.78;61.04
50394;BME280;36308;46.312;25.288;2023-05-23T04:26:05;95961.91;;;9.81;61.25
50394;BME280;36308;46.312;25.288;2023-05-23T04:28:31;95969.00;;;9.93;60.82
50394;BME280;36308;46.312;25.288;2023-05-23T04:30:56;95962.63;;;10.04;61.04
50394;BME280;36308;46.312;25.288;2023-05-23T04:33:23;95969.75;;;10.20;60.88
50394;BME280;36308;46.312;25.288;2023-05-23T04:35:48;95970.19;;;10.34;60.67
50394;BME280;36308;46.312;25.288;2023-05-23T04:38:15;95981.56;;;10.51;60.04
50394;BME280;36308;46.312;25.288;2023-05-23T04:40:41;95962.25;;;10.55;59.45
50394;BME280;36308;46.312;25.288;2023-05-23T04:43:07;95984.72;;;10.81;58.69
50394;BME280;36308;46.312;25.288;2023-05-23T04:45:34;95974.25;;;10.84;58.85
50394;BME280;36308;46.312;25.288;2023-05-23T04:48:01;95987.81;;;11.05;58.33
50394;BME280;36308;46.312;25.288;2023-05-23T04:50:27;95983.53;;;11.09;58.13
50394;BME280;36308;46.312;25.288;2023-05-23T04:52:56;95980.63;;;11.21;57.80
50394;BME280;36308;46.312;25.288;2023-05-23T04:55:21;95987.41;;;11.33;57.94
50394;BME280;36308;46.312;25.288;2023-05-23T04:57:47;95977.19;;;11.36;57.97
50394;BME280;36308;46.312;25.288;2023-05-23T05:00:13;95979.38;;;11.44;57.26
50394;BME280;36308;46.312;25.288;2023-05-23T05:02:39;95978.88;;;11.52;57.35
50394;BME280;36308;46.312;25.288;2023-05-23T05:05:05;95980.50;;;11.63;57.46
50394;BME280;36308;46.312;25.288;2023-05-23T05:07:31;95982.69;;;11.82;56.73
50394;BME280;36308;46.312;25.288;2023-05-23T05:09:57;95990.84;;;11.92;57.00
50394;BME280;36308;46.312;25.288;2023-05-23T05:12:22;95984.38;;;12.03;56.76
50394;BME280;36308;46.312;25.288;2023-05-23T05:14:48;95981.69;;;12.08;56.72
50394;BME280;36308;46.312;25.288;2023-05-23T05:17:13;95964.47;;;12.15;56.58
50394;BME280;36308;46.312;25.288;2023-05-23T05:19:39;95978.19;;;12.33;56.04
50394;BME280;36308;46.312;25.288;2023-05-23T05:22:04;95983.59;;;12.44;56.05
50394;BME280;36308;46.312;25.288;2023-05-23T05:24:30;95979.56;;;12.51;56.20
50394;BME280;36308;46.312;25.288;2023-05-23T05:26:57;95964.97;;;12.52;55.29
50394;BME280;36308;46.312;25.288;2023-05-23T05:29:22;95965.47;;;12.70;55.20
50394;BME280;36308;46.312;25.288;2023-05-23T05:31:48;95974.38;;;12.81;55.30
50394;BME280;36308;46.312;25.288;2023-05-23T05:34:13;95961.13;;;12.89;55.10
50394;BME280;36308;46.312;25.288;2023-05-23T05:36:39;95962.75;;;12.96;54.36
50394;BME280;36308;46.312;25.288;2023-05-23T05:39:11;95959.22;;;13.05;53.97
50394;BME280;36308;46.312;25.288;2023-05-23T05:41:38;95952.19;;;13.09;53.85
50394;BME280;36308;46.312;25.288;2023-05-23T05:44:03;95962.63;;;13.26;54.19
50394;BME280;36308;46.312;25.288;2023-05-23T05:46:29;95963.69;;;13.36;53.86
50394;BME280;36308;46.312;25.288;2023-05-23T05:48:54;95969.06;;;13.46;53.61
50394;BME280;36308;46.312;25.288;2023-05-23T05:51:20;95963.06;;;13.54;53.42
50394;BME280;36308;46.312;25.288;2023-05-23T05:53:45;95959.78;;;13.62;53.45
50394;BME280;36308;46.312;25.288;2023-05-23T05:56:11;95956.50;;;13.70;52.96
50394;BME280;36308;46.312;25.288;2023-05-23T05:58:36;95962.41;;;13.78;53.04
50394;BME280;36308;46.312;25.288;2023-05-23T06:01:02;95955.31;;;13.87;52.65
50394;BME280;36308;46.312;25.288;2023-05-23T06:03:30;95964.75;;;13.94;52.68
50394;BME280;36308;46.312;25.288;2023-05-23T06:05:56;95950.41;;;13.94;52.34
50394;BME280;36308;46.312;25.288;2023-05-23T06:08:21;95970.56;;;14.12;52.23
50394;BME280;36308;46.312;25.288;2023-05-23T06:10:47;95976.97;;;14.21;52.43
50394;BME280;36308;46.312;25.288;2023-05-23T06:13:13;95966.66;;;14.28;51.92
50394;BME280;36308;46.312;25.288;2023-05-23T06:15:38;95973.38;;;14.36;51.93
50394;BME280;36308;46.312;25.288;2023-05-23T06:18:03;95973.56;;;14.45;51.80
50394;BME280;36308;46.312;25.288;2023-05-23T06:20:29;95963.47;;;14.50;51.88
50394;BME280;36308;46.312;25.288;2023-05-23T06:22:54;95975.81;;;14.67;51.81
50394;BME280;36308;46.312;25.288;2023-05-23T06:25:20;95973.00;;;14.77;51.78
50394;BME280;36308;46.312;25.288;2023-05-23T06:27:47;95951.94;;;14.74;51.59
50394;BME280;36308;46.312;25.288;2023-05-23T06:30:13;95968.50;;;14.97;51.55
50394;BME280;36308;46.312;25.288;2023-05-23T06:32:39;95970.00;;;15.08;51.76
50394;BME280;36308;46.312;25.288;2023-05-23T06:35:05;95967.16;;;15.18;51.66
50394;BME280;36308;46.312;25.288;2023-05-23T06:37:31;95965.44;;;15.27;51.59
50394;BME280;36308;46.312;25.288;2023-05-23T06:39:56;95955.56;;;15.36;52.00
50394;BME280;36308;46.312;25.288;2023-05-23T06:42:22;95957.00;;;15.53;51.80
50394;BME280;36308;46.312;25.288;2023-05-23T06:44:47;95949.81;;;15.62;51.60
50394;BME280;36308;46.312;25.288;2023-05-23T06:47:13;95934.59;;;15.66;51.75
50394;BME280;36308;46.312;25.288;2023-05-23T06:49:38;95951.63;;;15.91;51.25
50394;BME280;36308;46.312;25.288;2023-05-23T06:52:04;95943.06;;;16.03;51.37
50394;BME280;36308;46.312;25.288;2023-05-23T06:54:29;95937.75;;;16.11;51.86
50394;BME280;36308;46.312;25.288;2023-05-23T06:56:55;95940.94;;;16.32;52.05
50394;BME280;36308;46.312;25.288;2023-05-23T06:59:20;95953.97;;;16.49;50.95
50394;BME280;36308;46.312;25.288;2023-05-23T07:01:46;95941.22;;;16.64;50.97
50394;BME280;36308;46.312;25.288;2023-05-23T07:04:11;95945.81;;;16.82;51.01
50394;BME280;36308;46.312;25.288;2023-05-23T07:06:37;95936.91;;;16.95;50.66
50394;BME280;36308;46.312;25.288;2023-05-23T07:09:04;95930.25;;;17.15;50.34
50394;BME280;36308;46.312;25.288;2023-05-23T07:11:29;95919.69;;;17.28;49.40
50394;BME280;36308;46.312;25.288;2023-05-23T07:13:55;95928.22;;;17.49;48.51
50394;BME280;36308;46.312;25.288;2023-05-23T07:16:20;95920.03;;;17.63;48.08
50394;BME280;36308;46.312;25.288;2023-05-23T07:18:46;95922.91;;;17.80;47.77
50394;BME280;36308;46.312;25.288;2023-05-23T07:21:11;95929.66;;;17.96;47.67
50394;BME280;36308;46.312;25.288;2023-05-23T07:23:37;95915.81;;;18.07;47.33
50394;BME280;36308;46.312;25.288;2023-05-23T07:26:03;95906.66;;;18.25;47.09
50394;BME280;36308;46.312;25.288;2023-05-23T07:28:29;95920.94;;;18.53;46.32
50394;BME280;36308;46.312;25.288;2023-05-23T07:30:55;95913.84;;;18.75;45.54
50394;BME280;36308;46.312;25.288;2023-05-23T07:33:22;95924.22;;;18.95;45.18
50394;BME280;36308;46.312;25.288;2023-05-23T07:35:48;95909.56;;;19.14;44.52
50394;BME280;36308;46.312;25.288;2023-05-23T07:38:13;95903.03;;;19.24;43.97
50394;BME280;36308;46.312;25.288;2023-05-23T07:40:39;95908.03;;;19.48;43.44
50394;BME280;36308;46.312;25.288;2023-05-23T07:43:04;95909.03;;;19.69;43.31
50394;BME280;36308;46.312;25.288;2023-05-23T07:45:30;95896.88;;;19.75;42.84
50394;BME280;36308;46.312;25.288;2023-05-23T07:47:56;95903.47;;;20.01;43.01
50394;BME280;36308;46.312;25.288;2023-05-23T07:50:22;95906.19;;;20.18;42.46
50394;BME280;36308;46.312;25.288;2023-05-23T07:52:47;95907.47;;;20.38;42.07
50394;BME280;36308;46.312;25.288;2023-05-23T07:55:15;95912.41;;;20.62;41.76
50394;BME280;36308;46.312;25.288;2023-05-23T07:57:41;95910.44;;;20.80;41.36
50394;BME280;36308;46.312;25.288;2023-05-23T08:00:06;95910.84;;;20.99;40.87
50394;BME280;36308;46.312;25.288;2023-05-23T08:02:34;95917.84;;;21.18;40.45
50394;BME280;36308;46.312;25.288;2023-05-23T08:04:59;95901.88;;;21.29;40.33
50394;BME280;36308;46.312;25.288;2023-05-23T08:07:25;95909.56;;;21.44;39.69
50394;BME280;36308;46.312;25.288;2023-05-23T08:09:51;95902.88;;;21.54;39.17
50394;BME280;36308;46.312;25.288;2023-05-23T08:12:16;95893.63;;;21.67;39.10
50394;BME280;36308;46.312;25.288;2023-05-23T08:14:42;95889.03;;;21.80;38.84
50394;BME280;36308;46.312;25.288;2023-05-23T08:17:07;95892.31;;;21.94;38.48
50394;BME280;36308;46.312;25.288;2023-05-23T08:19:33;95888.38;;;22.04;38.23
50394;BME280;36308;46.312;25.288;2023-05-23T08:21:58;95901.75;;;22.27;38.17
50394;BME280;36308;46.312;25.288;2023-05-23T08:24:24;95907.03;;;22.44;37.41
50394;BME280;36308;46.312;25.288;2023-05-23T08:26:50;95890.84;;;22.51;37.42
50394;BME280;36308;46.312;25.288;2023-05-23T08:29:15;95896.16;;;22.69;37.60
50394;BME280;36308;46.312;25.288;2023-05-23T08:31:41;95895.97;;;22.86;37.25
50394;BME280;36308;46.312;25.288;2023-05-23T08:34:06;95882.03;;;22.91;36.06
50394;BME280;36308;46.312;25.288;2023-05-23T08:36:32;95880.00;;;23.00;35.54
50394;BME280;36308;46.312;25.288;2023-05-23T08:39:01;95901.97;;;23.25;35.31
50394;BME280;36308;46.312;25.288;2023-05-23T08:41:26;95898.53;;;23.40;34.84
50394;BME280;36308;46.312;25.288;2023-05-23T08:43:52;95883.56;;;23.50;34.46
50394;BME280;36308;46.312;25.288;2023-05-23T08:46:17;95878.75;;;23.59;34.62
50394;BME280;36308;46.312;25.288;2023-05-23T08:48:50;95880.47;;;23.76;34.09
50394;BME280;36308;46.312;25.288;2023-05-23T08:51:16;95885.44;;;23.99;34.09
50394;BME280;36308;46.312;25.288;2023-05-23T08:53:44;95881.06;;;24.10;33.30
50394;BME280;36308;46.312;25.288;2023-05-23T08:56:14;95886.94;;;24.25;33.05
50394;BME280;36308;46.312;25.288;2023-05-23T08:58:41;95884.94;;;24.37;32.94
50394;BME280;36308;46.312;25.288;2023-05-23T09:01:08;95894.84;;;24.54;32.94
50394;BME280;36308;46.312;25.288;2023-05-23T09:03:35;95891.59;;;24.65;32.70
50394;BME280;36308;46.312;25.288;2023-05-23T09:06:08;95886.03;;;24.77;32.59
50394;BME280;36308;46.312;25.288;2023-05-23T09:08:34;95890.31;;;24.90;32.41
50394;BME280;36308;46.312;25.288;2023-05-23T09:11:01;95874.88;;;25.01;32.23
50394;BME280;36308;46.312;25.288;2023-05-23T09:13:29;95874.34;;;25.12;32.00
50394;BME280;36308;46.312;25.288;2023-05-23T09:18:33;95892.44;;;25.45;32.29
50394;BME280;36308;46.312;25.288;2023-05-23T09:21:00;95881.78;;;25.59;32.71
50394;BME280;36308;46.312;25.288;2023-05-23T09:23:29;95880.50;;;25.72;32.41
50394;BME280;36308;46.312;25.288;2023-05-23T09:25:55;95882.38;;;25.88;32.61
50394;BME280;36308;46.312;25.288;2023-05-23T09:28:20;95876.50;;;26.05;32.19
50394;BME280;36308;46.312;25.288;2023-05-23T09:30:46;95872.00;;;26.16;32.17
50394;BME280;36308;46.312;25.288;2023-05-23T09:33:13;95878.66;;;26.35;32.24
50394;BME280;36308;46.312;25.288;2023-05-23T09:35:45;95869.38;;;26.43;32.35
50394;BME280;36308;46.312;25.288;2023-05-23T09:38:10;95864.38;;;26.49;31.50
50394;BME280;36308;46.312;25.288;2023-05-23T09:40:37;95879.19;;;26.60;31.11
50394;BME280;36308;46.312;25.288;2023-05-23T09:43:08;95874.31;;;26.53;30.72
50394;BME280;36308;46.312;25.288;2023-05-23T09:45:34;95883.00;;;26.55;30.66
50394;BME280;36308;46.312;25.288;2023-05-23T09:48:00;95876.69;;;26.55;30.47
50394;BME280;36308;46.312;25.288;2023-05-23T09:50:30;95865.53;;;26.48;30.87
50394;BME280;36308;46.312;25.288;2023-05-23T09:52:58;95877.59;;;26.59;30.88
50394;BME280;36308;46.312;25.288;2023-05-23T09:55:23;95880.97;;;26.72;31.21
50394;BME280;36308;46.312;25.288;2023-05-23T09:57:52;95869.41;;;26.86;30.95
50394;BME280;36308;46.312;25.288;2023-05-23T10:00:21;95872.03;;;27.01;30.76
50394;BME280;36308;46.312;25.288;2023-05-23T10:05:35;95863.09;;;27.31;29.11
50394;BME280;36308;46.312;25.288;2023-05-23T10:08:07;95869.16;;;27.40;29.46
50394;BME280;36308;46.312;25.288;2023-05-23T10:11:10;95858.22;;;27.48;29.49
50394;BME280;36308;46.312;25.288;2023-05-23T10:13:25;95864.28;;;27.57;29.53
50394;BME280;36308;46.312;25.288;2023-05-23T10:16:19;95856.84;;;27.61;29.26
50394;BME280;36308;46.312;25.288;2023-05-23T10:18:44;95850.19;;;27.66;28.96
50394;BME280;36308;46.312;25.288;2023-05-23T10:21:18;95853.31;;;27.64;28.97
50394;BME280;36308;46.312;25.288;2023-05-23T10:23:46;95856.13;;;27.68;28.96
50394;BME280;36308;46.312;25.288;2023-05-23T10:26:12;95854.50;;;27.63;28.89
50394;BME280;36308;46.312;25.288;2023-05-23T10:28:39;95845.78;;;27.61;29.32
50394;BME280;36308;46.312;25.288;2023-05-23T10:31:06;95836.38;;;27.66;29.22
50394;BME280;36308;46.312;25.288;2023-05-23T10:33:37;95841.72;;;27.81;29.35
50394;BME280;36308;46.312;25.288;2023-05-23T10:36:09;95843.16;;;27.98;28.76
50394;BME280;36308;46.312;25.288;2023-05-23T10:41:45;95836.84;;;28.32;28.53
50394;BME280;36308;46.312;25.288;2023-05-23T10:44:17;95839.34;;;28.44;28.35
50394;BME280;36308;46.312;25.288;2023-05-23T10:46:54;95830.72;;;28.49;27.25
50394;BME280;36308;46.312;25.288;2023-05-23T10:52:04;95823.00;;;28.66;27.28
50394;BME280;36308;46.312;25.288;2023-05-23T10:54:41;95815.47;;;28.63;26.90
50394;BME280;36308;46.312;25.288;2023-05-23T10:57:09;95816.31;;;28.67;27.21
50394;BME280;36308;46.312;25.288;2023-05-23T10:59:37;95819.94;;;28.78;26.94
50394;BME280;36308;46.312;25.288;2023-05-23T11:02:04;95823.22;;;28.91;26.54
50394;BME280;36308;46.312;25.288;2023-05-23T11:04:33;95823.34;;;29.01;26.52
50394;BME280;36308;46.312;25.288;2023-05-23T11:06:59;95818.31;;;29.14;26.22
50394;BME280;36308;46.312;25.288;2023-05-23T11:09:24;95816.47;;;29.33;25.69
50394;BME280;36308;46.312;25.288;2023-05-23T11:16:45;95817.53;;;29.73;26.34
50394;BME280;36308;46.312;25.288;2023-05-23T11:19:31;95799.34;;;29.75;25.83
50394;BME280;36308;46.312;25.288;2023-05-23T11:21:58;95808.91;;;29.85;25.83
50394;BME280;36308;46.312;25.288;2023-05-23T11:25:01;95801.03;;;29.98;25.61
50394;BME280;36308;46.312;25.288;2023-05-23T11:30:16;95804.28;;;30.21;25.42
50394;BME280;36308;46.312;25.288;2023-05-23T11:32:49;95786.84;;;30.14;25.96
50394;BME280;36308;46.312;25.288;2023-05-23T11:35:17;95798.72;;;30.21;25.45
50394;BME280;36308;46.312;25.288;2023-05-23T11:37:43;95803.88;;;30.19;25.45
50394;BME280;36308;46.312;25.288;2023-05-23T11:40:31;95799.53;;;30.26;25.77
50394;BME280;36308;46.312;25.288;2023-05-23T11:42:57;95789.28;;;30.30;25.56
50394;BME280;36308;46.312;25.288;2023-05-23T11:45:24;95797.25;;;30.49;25.40
50394;BME280;36308;46.312;25.288;2023-05-23T11:47:50;95794.88;;;30.58;25.39
50394;BME280;36308;46.312;25.288;2023-05-23T11:50:16;95789.34;;;30.73;25.50
50394;BME280;36308;46.312;25.288;2023-05-23T11:52:42;95787.00;;;30.82;25.18
50394;BME280;36308;46.312;25.288;2023-05-23T11:55:16;95783.06;;;30.90;25.25
50394;BME280;36308;46.312;25.288;2023-05-23T11:57:42;95795.38;;;30.96;24.53
50394;BME280;36308;46.312;25.288;2023-05-23T12:00:09;95786.22;;;30.99;24.45
50394;BME280;36308;46.312;25.288;2023-05-23T12:02:39;95775.91;;;31.04;23.86
50394;BME280;36308;46.312;25.288;2023-05-23T12:05:12;95771.97;;;31.05;23.34
50394;BME280;36308;46.312;25.288;2023-05-23T12:07:41;95778.28;;;31.09;23.44
50394;BME280;36308;46.312;25.288;2023-05-23T12:10:10;95779.88;;;31.10;23.69
50394;BME280;36308;46.312;25.288;2023-05-23T12:12:36;95775.53;;;31.01;23.80
50394;BME280;36308;46.312;25.288;2023-05-23T12:15:03;95786.22;;;30.99;23.87
50394;BME280;36308;46.312;25.288;2023-05-23T12:17:29;95783.06;;;30.90;23.90
50394;BME280;36308;46.312;25.288;2023-05-23T12:19:55;95781.44;;;30.82;24.25
50394;BME280;36308;46.312;25.288;2023-05-23T12:22:24;95777.09;;;30.74;24.23
50394;BME280;36308;46.312;25.288;2023-05-23T12:24:53;95771.50;;;30.56;24.35
50394;BME280;36308;46.312;25.288;2023-05-23T12:27:29;95773.09;;;30.42;24.63
50394;BME280;36308;46.312;25.288;2023-05-23T12:30:15;95770.25;;;30.32;24.76
50394;BME280;36308;46.312;25.288;2023-05-23T12:32:42;95764.69;;;30.17;24.77
50394;BME280;36308;46.312;25.288;2023-05-23T12:35:12;95768.56;;;30.02;24.59
50394;BME280;36308;46.312;25.288;2023-05-23T12:37:39;95750.28;;;29.79;24.84
50394;BME280;36308;46.312;25.288;2023-05-23T12:40:15;95754.19;;;29.71;24.69
50394;BME280;36308;46.312;25.288;2023-05-23T12:45:37;95755.91;;;29.28;24.11
50394;BME280;36308;46.312;25.288;2023-05-23T12:48:03;95756.97;;;29.09;24.31
50394;BME280;36308;46.312;25.288;2023-05-23T12:50:29;95752.09;;;28.91;24.26
50394;BME280;36308;46.312;25.288;2023-05-23T12:52:55;95759.91;;;28.82;24.36
50394;BME280;36308;46.312;25.288;2023-05-23T12:55:21;95749.50;;;28.65;24.61
50394;BME280;36308;46.312;25.288;2023-05-23T12:57:46;95760.06;;;28.55;24.90
50394;BME280;36308;46.312;25.288;2023-05-23T13:00:12;95767.47;;;28.44;25.38
50394;BME280;36308;46.312;25.288;2023-05-23T13:02:38;95753.06;;;28.28;26.01
50394;BME280;36308;46.312;25.288;2023-05-23T13:05:04;95752.56;;;28.15;26.29
50394;BME280;36308;46.312;25.288;2023-05-23T13:07:31;95745.66;;;27.98;26.76
50394;BME280;36308;46.312;25.288;2023-05-23T13:09:56;95749.38;;;27.82;26.92
50394;BME280;36308;46.312;25.288;2023-05-23T13:12:22;95743.31;;;27.70;27.40
50394;BME280;36308;46.312;25.288;2023-05-23T13:14:48;95732.81;;;27.49;27.73
50394;BME280;36308;46.312;25.288;2023-05-23T13:17:14;95746.13;;;27.43;28.38
50394;BME280;36308;46.312;25.288;2023-05-23T13:19:39;95732.97;;;27.29;28.30
50394;BME280;36308;46.312;25.288;2023-05-23T13:22:05;95743.00;;;27.18;29.03